sensor_id;sensor_type;location;lat;lon;timestamp;pressure;altitude;pressure_sealevel;temperature;humidity
64876;BME280;51369;49.862;9.908;2023-12-20T00:00:50;98262.47;;;6.83;87.47
64876;BME280;51369;49.862;9.908;2023-12-20T00:03:15;98267.84;;;6.83;87.38
64876;BME280;51369;49.862;9.908;2023-12-20T00:05:40;98272.28;;;6.84;87.49
64876;BME280;51369;49.862;9.908;2023-12-20T00:08:06;98265.97;;;6.85;87.30
64876;BME280;51369;49.862;9.908;2023-12-20T00:10:32;98265.97;;;6.85;87.49
64876;BME280;51369;49.862;9.908;2023-12-20T00:12:57;98265.09;;;6.84;87.10
64876;BME280;51369;49.862;9.908;2023-12-20T00:15:23;98258.84;;;6.84;87.12
64876;BME280;51369;49.862;9.908;2023-12-20T00:17:48;98254.41;;;6.83;87.19
64876;BME280;51369;49.862;9.908;2023-12-20T00:20:13;98254.41;;;6.83;87.03
64876;BME280;51369;49.862;9.908;2023-12-20T00:22:39;98247.28;;;6.82;86.92
64876;BME280;51369;49.862;9.908;2023-12-20T00:25:05;98253.53;;;6.82;86.74
64876;BME280;51369;49.862;9.908;2023-12-20T00:27:30;98250.91;;;6.81;86.63
64876;BME280;51369;49.862;9.908;2023-12-20T00:29:55;98238.34;;;6.81;86.89
64876;BME280;51369;49.862;9.908;2023-12-20T00:32:21;98239.25;;;6.82;86.64
64876;BME280;51369;49.862;9.908;2023-12-20T00:34:46;98238.41;;;6.80;86.63
64876;BME280;51369;49.862;9.908;2023-12-20T00:37:12;98239.34;;;6.79;86.42
64876;BME280;51369;49.862;9.908;2023-12-20T00:39:37;98224.09;;;6.79;86.90
64876;BME280;51369;49.862;9.908;2023-12-20T00:42:02;98217.91;;;6.77;86.28
64876;BME280;51369;49.862;9.908;2023-12-20T00:44:28;98222.41;;;6.77;86.28
64876;BME280;51369;49.862;9.908;2023-12-20T00:46:53;98217.97;;;6.76;86.03
64876;BME280;51369;49.862;9.908;2023-12-20T00:49:19;98208.16;;;6.75;86.22
64876;BME280;51369;49.862;9.908;2023-12-20T00:51:44;98207.28;;;6.74;86.01
64876;BME280;51369;49.862;9.908;2023-12-20T00:54:09;98206.38;;;6.74;86.11
64876;BME280;51369;49.862;9.908;2023-12-20T00:56:35;98205.50;;;6.73;85.78
64876;BME280;51369;49.862;9.908;2023-12-20T00:59:00;98200.19;;;6.72;85.30
64876;BME280;51369;49.862;9.908;2023-12-20T01:01:26;98202.00;;;6.71;84.93
64876;BME280;51369;49.862;9.908;2023-12-20T01:03:51;98200.25;;;6.70;84.95
64876;BME280;51369;49.862;9.908;2023-12-20T01:06:17;98202.97;;;6.69;85.17
64876;BME280;51369;49.862;9.908;2023-12-20T01:08:42;98201.22;;;6.68;84.86
64876;BME280;51369;49.862;9.908;2023-12-20T01:11:07;98188.72;;;6.67;84.84
64876;BME280;51369;49.862;9.908;2023-12-20T01:13:33;98197.69;;;6.66;84.92
64876;BME280;51369;49.862;9.908;2023-12-20T01:15:58;98187.88;;;6.65;85.06
64876;BME280;51369;49.862;9.908;2023-12-20T01:18:24;98184.31;;;6.64;84.43
64876;BME280;51369;49.862;9.908;2023-12-20T01:20:49;98185.25;;;6.63;84.64
64876;BME280;51369;49.862;9.908;2023-12-20T01:23:14;98181.72;;;6.61;84.70
64876;BME280;51369;49.862;9.908;2023-12-20T01:25:40;98186.22;;;6.61;84.80
64876;BME280;51369;49.862;9.908;2023-12-20T01:28:05;98173.78;;;6.58;84.33
64876;BME280;51369;49.862;9.908;2023-12-20T01:30:31;98177.38;;;6.57;84.22
64876;BME280;51369;49.862;9.908;2023-12-20T01:32:56;98179.19;;;6.57;83.78
64876;BME280;51369;49.862;9.908;2023-12-20T01:35:21;98176.59;;;6.53;83.98
64876;BME280;51369;49.862;9.908;2023-12-20T01:37:47;98165.00;;;6.53;83.82
64876;BME280;51369;49.862;9.908;2023-12-20T01:40:12;98157.91;;;6.50;83.87
64876;BME280;51369;49.862;9.908;2023-12-20T01:42:37;98159.72;;;6.50;83.43
64876;BME280;51369;49.862;9.908;2023-12-20T01:45:03;98166.06;;;6.47;83.52
64876;BME280;51369;49.862;9.908;2023-12-20T01:47:29;98177.72;;;6.46;83.92
64876;BME280;51369;49.862;9.908;2023-12-20T01:49:54;98167.03;;;6.45;84.02
64876;BME280;51369;49.862;9.908;2023-12-20T01:52:22;98167.06;;;6.43;83.93
64876;BME280;51369;49.862;9.908;2023-12-20T01:54:48;98166.19;;;6.43;84.11
64876;BME280;51369;49.862;9.908;2023-12-20T01:57:14;98164.38;;;6.43;84.18
64876;BME280;51369;49.862;9.908;2023-12-20T01:59:40;98173.34;;;6.42;83.75
64876;BME280;51369;49.862;9.908;2023-12-20T02:02:07;98170.72;;;6.41;83.68
64876;BME280;51369;49.862;9.908;2023-12-20T02:04:32;98163.59;;;6.40;83.85
64876;BME280;51369;49.862;9.908;2023-12-20T02:06:58;98174.28;;;6.41;84.40
64876;BME280;51369;49.862;9.908;2023-12-20T02:09:24;98171.63;;;6.40;84.12
64876;BME280;51369;49.862;9.908;2023-12-20T02:11:49;98169.88;;;6.39;83.94
64876;BME280;51369;49.862;9.908;2023-12-20T02:14:15;98180.66;;;6.37;84.40
64876;BME280;51369;49.862;9.908;2023-12-20T02:16:40;98178.84;;;6.38;84.35
64876;BME280;51369;49.862;9.908;2023-12-20T02:19:13;98177.13;;;6.35;84.16
64876;BME280;51369;49.862;9.908;2023-12-20T02:21:38;98180.75;;;6.34;84.07
64876;BME280;51369;49.862;9.908;2023-12-20T02:24:04;98180.75;;;6.34;84.60
64876;BME280;51369;49.862;9.908;2023-12-20T02:26:31;98170.06;;;6.33;84.31
64876;BME280;51369;49.862;9.908;2023-12-20T02:28:56;98175.47;;;6.31;84.54
64876;BME280;51369;49.862;9.908;2023-12-20T02:31:23;98168.34;;;6.30;84.47
64876;BME280;51369;49.862;9.908;2023-12-20T02:33:49;98173.72;;;6.30;84.35
64876;BME280;51369;49.862;9.908;2023-12-20T02:36:14;98173.75;;;6.29;84.70
64876;BME280;51369;49.862;9.908;2023-12-20T02:38:40;98175.56;;;6.28;84.69
64876;BME280;51369;49.862;9.908;2023-12-20T02:41:05;98177.34;;;6.28;84.76
64876;BME280;51369;49.862;9.908;2023-12-20T02:43:30;98168.44;;;6.27;85.01
64876;BME280;51369;49.862;9.908;2023-12-20T02:45:56;98171.16;;;6.26;84.67
64876;BME280;51369;49.862;9.908;2023-12-20T02:48:21;98176.56;;;6.24;84.70
64876;BME280;51369;49.862;9.908;2023-12-20T02:50:47;98179.28;;;6.23;84.87
64876;BME280;51369;49.862;9.908;2023-12-20T02:53:14;98181.09;;;6.22;84.94
64876;BME280;51369;49.862;9.908;2023-12-20T02:55:39;98180.22;;;6.22;85.04
64876;BME280;51369;49.862;9.908;2023-12-20T02:58:05;98186.50;;;6.20;84.80
64876;BME280;51369;49.862;9.908;2023-12-20T03:00:30;98191.84;;;6.20;84.80
64876;BME280;51369;49.862;9.908;2023-12-20T03:02:55;98178.47;;;6.20;85.10
64876;BME280;51369;49.862;9.908;2023-12-20T03:05:21;98170.47;;;6.19;84.50
64876;BME280;51369;49.862;9.908;2023-12-20T03:07:46;98173.19;;;6.17;85.09
64876;BME280;51369;49.862;9.908;2023-12-20T03:10:11;98173.19;;;6.17;85.18
64876;BME280;51369;49.862;9.908;2023-12-20T03:12:37;98169.63;;;6.17;84.40
64876;BME280;51369;49.862;9.908;2023-12-20T03:15:02;98173.22;;;6.16;84.58
64876;BME280;51369;49.862;9.908;2023-12-20T03:17:28;98168.78;;;6.15;85.22
64876;BME280;51369;49.862;9.908;2023-12-20T03:19:53;98174.16;;;6.15;85.02
64876;BME280;51369;49.862;9.908;2023-12-20T03:22:19;98176.88;;;6.13;84.98
64876;BME280;51369;49.862;9.908;2023-12-20T03:24:44;98174.19;;;6.13;84.63
64876;BME280;51369;49.862;9.908;2023-12-20T03:27:10;98168.88;;;6.12;84.99
64876;BME280;51369;49.862;9.908;2023-12-20T03:29:35;98167.13;;;6.11;85.25
64876;BME280;51369;49.862;9.908;2023-12-20T03:32:01;98157.31;;;6.10;85.35
64876;BME280;51369;49.862;9.908;2023-12-20T03:34:26;98168.03;;;6.10;84.69
64876;BME280;51369;49.862;9.908;2023-12-20T03:36:52;98179.69;;;6.09;84.88
64876;BME280;51369;49.862;9.908;2023-12-20T03:39:17;98185.03;;;6.09;84.82
64876;BME280;51369;49.862;9.908;2023-12-20T03:41:42;98181.47;;;6.08;85.49
64876;BME280;51369;49.862;9.908;2023-12-20T03:44:08;98167.25;;;6.06;84.74
64876;BME280;51369;49.862;9.908;2023-12-20T03:46:33;98171.69;;;6.07;85.05
64876;BME280;51369;49.862;9.908;2023-12-20T03:48:58;98174.41;;;6.06;85.12
64876;BME280;51369;49.862;9.908;2023-12-20T03:51:24;98174.41;;;6.06;85.48
64876;BME280;51369;49.862;9.908;2023-12-20T03:53:49;98186.00;;;6.06;85.44
64876;BME280;51369;49.862;9.908;2023-12-20T03:56:14;98170.84;;;6.05;85.42
64876;BME280;51369;49.862;9.908;2023-12-20T03:58:40;98181.56;;;6.05;84.96
64876;BME280;51369;49.862;9.908;2023-12-20T04:01:10;98177.13;;;6.04;85.56
64876;BME280;51369;49.862;9.908;2023-12-20T04:03:38;98190.47;;;6.06;85.81
64876;BME280;51369;49.862;9.908;2023-12-20T04:06:04;98187.81;;;6.06;85.62
64876;BME280;51369;49.862;9.908;2023-12-20T04:08:29;98184.28;;;6.04;85.72
64876;BME280;51369;49.862;9.908;2023-12-20T04:10:54;98190.47;;;6.06;85.25
64876;BME280;51369;49.862;9.908;2023-12-20T04:13:20;98191.41;;;6.05;85.12
64876;BME280;51369;49.862;9.908;2023-12-20T04:15:45;98173.53;;;6.05;85.34
64876;BME280;51369;49.862;9.908;2023-12-20T04:18:10;98176.22;;;6.05;85.13
64876;BME280;51369;49.862;9.908;2023-12-20T04:20:36;98174.41;;;6.06;85.77
64876;BME280;51369;49.862;9.908;2023-12-20T04:23:01;98177.09;;;6.06;84.90
64876;BME280;51369;49.862;9.908;2023-12-20T04:25:26;98177.03;;;6.07;85.69
64876;BME280;51369;49.862;9.908;2023-12-20T04:27:52;98177.91;;;6.08;85.44
64876;BME280;51369;49.862;9.908;2023-12-20T04:30:17;98165.44;;;6.07;85.74
64876;BME280;51369;49.862;9.908;2023-12-20T04:32:42;98169.88;;;6.08;85.85
64876;BME280;51369;49.862;9.908;2023-12-20T04:35:08;98169.88;;;6.08;85.18
64876;BME280;51369;49.862;9.908;2023-12-20T04:37:33;98176.16;;;6.07;85.40
64876;BME280;51369;49.862;9.908;2023-12-20T04:39:59;98172.56;;;6.08;85.15
64876;BME280;51369;49.862;9.908;2023-12-20T04:42:24;98177.00;;;6.09;85.23
64876;BME280;51369;49.862;9.908;2023-12-20T04:44:50;98174.31;;;6.09;85.44
64876;BME280;51369;49.862;9.908;2023-12-20T04:47:15;98178.81;;;6.08;85.36
64876;BME280;51369;49.862;9.908;2023-12-20T04:49:41;98191.28;;;6.09;85.74
64876;BME280;51369;49.862;9.908;2023-12-20T04:52:06;98192.16;;;6.10;86.06
64876;BME280;51369;49.862;9.908;2023-12-20T04:54:31;98199.28;;;6.11;85.44
64876;BME280;51369;49.862;9.908;2023-12-20T04:56:57;98198.41;;;6.10;85.53
64876;BME280;51369;49.862;9.908;2023-12-20T04:59:22;98204.63;;;6.11;85.17
64876;BME280;51369;49.862;9.908;2023-12-20T05:01:48;98207.28;;;6.12;85.60
64876;BME280;51369;49.862;9.908;2023-12-20T05:04:13;98207.22;;;6.14;85.65
64876;BME280;51369;49.862;9.908;2023-12-20T05:06:39;98211.69;;;6.15;85.75
64876;BME280;51369;49.862;9.908;2023-12-20T05:09:04;98211.69;;;6.15;85.77
64876;BME280;51369;49.862;9.908;2023-12-20T05:11:29;98217.84;;;6.18;86.06
64876;BME280;51369;49.862;9.908;2023-12-20T05:13:55;98212.47;;;6.18;85.87
64876;BME280;51369;49.862;9.908;2023-12-20T05:16:21;98224.06;;;6.19;85.92
64876;BME280;51369;49.862;9.908;2023-12-20T05:18:48;98224.06;;;6.19;85.76
64876;BME280;51369;49.862;9.908;2023-12-20T05:21:13;98234.75;;;6.20;85.61
64876;BME280;51369;49.862;9.908;2023-12-20T05:23:39;98230.22;;;6.23;85.51
64876;BME280;51369;49.862;9.908;2023-12-20T05:26:04;98234.66;;;6.24;85.29
64876;BME280;51369;49.862;9.908;2023-12-20T05:28:30;98238.13;;;6.27;85.16
64876;BME280;51369;49.862;9.908;2023-12-20T05:30:55;98253.34;;;6.27;84.87
64876;BME280;51369;49.862;9.908;2023-12-20T05:33:20;98239.91;;;6.28;85.00
64876;BME280;51369;49.862;9.908;2023-12-20T05:35:46;98245.25;;;6.28;85.64
64876;BME280;51369;49.862;9.908;2023-12-20T05:38:11;98241.63;;;6.31;85.04
64876;BME280;51369;49.862;9.908;2023-12-20T05:40:36;98241.63;;;6.31;85.34
64876;BME280;51369;49.862;9.908;2023-12-20T05:43:02;98248.75;;;6.32;85.52
64876;BME280;51369;49.862;9.908;2023-12-20T05:45:27;98245.13;;;6.33;85.56
64876;BME280;51369;49.862;9.908;2023-12-20T05:47:53;98250.50;;;6.33;85.52
64876;BME280;51369;49.862;9.908;2023-12-20T05:50:18;98250.47;;;6.34;85.78
64876;BME280;51369;49.862;9.908;2023-12-20T05:52:44;98251.38;;;6.33;85.73
64876;BME280;51369;49.862;9.908;2023-12-20T05:55:09;98254.06;;;6.33;85.53
64876;BME280;51369;49.862;9.908;2023-12-20T05:57:35;98266.53;;;6.34;85.86
64876;BME280;51369;49.862;9.908;2023-12-20T06:00:00;98261.19;;;6.34;85.58
64876;BME280;51369;49.862;9.908;2023-12-20T06:02:26;98258.50;;;6.34;85.57
64876;BME280;51369;49.862;9.908;2023-12-20T06:04:51;98262.06;;;6.35;85.55
64876;BME280;51369;49.862;9.908;2023-12-20T06:07:17;98278.09;;;6.36;86.04
64876;BME280;51369;49.862;9.908;2023-12-20T06:09:42;98269.19;;;6.36;85.80
64876;BME280;51369;49.862;9.908;2023-12-20T06:12:08;98275.38;;;6.38;86.06
64876;BME280;51369;49.862;9.908;2023-12-20T06:14:33;98275.34;;;6.39;86.25
64876;BME280;51369;49.862;9.908;2023-12-20T06:16:59;98273.53;;;6.40;86.19
64876;BME280;51369;49.862;9.908;2023-12-20T06:19:26;98273.53;;;6.40;86.20
64876;BME280;51369;49.862;9.908;2023-12-20T06:21:51;98286.91;;;6.41;85.91
64876;BME280;51369;49.862;9.908;2023-12-20T06:24:16;98282.50;;;6.39;86.37
64876;BME280;51369;49.862;9.908;2023-12-20T06:26:42;98283.44;;;6.38;86.14
64876;BME280;51369;49.862;9.908;2023-12-20T06:29:07;98279.91;;;6.36;86.17
64876;BME280;51369;49.862;9.908;2023-12-20T06:31:33;98277.31;;;6.33;85.56
64876;BME280;51369;49.862;9.908;2023-12-20T06:33:58;98292.59;;;6.29;85.63
64876;BME280;51369;49.862;9.908;2023-12-20T06:36:25;98287.31;;;6.26;86.21
64876;BME280;51369;49.862;9.908;2023-12-20T06:38:51;98285.59;;;6.24;86.15
64876;BME280;51369;49.862;9.908;2023-12-20T06:41:16;98294.53;;;6.24;85.96
64876;BME280;51369;49.862;9.908;2023-12-20T06:43:42;98296.31;;;6.24;86.03
64876;BME280;51369;49.862;9.908;2023-12-20T06:46:07;98295.38;;;6.26;86.60
64876;BME280;51369;49.862;9.908;2023-12-20T06:48:34;98307.84;;;6.27;86.56
64876;BME280;51369;49.862;9.908;2023-12-20T06:51:00;98315.81;;;6.30;86.42
64876;BME280;51369;49.862;9.908;2023-12-20T06:53:25;98305.03;;;6.32;86.53
64876;BME280;51369;49.862;9.908;2023-12-20T06:55:51;98310.31;;;6.35;86.41
64876;BME280;51369;49.862;9.908;2023-12-20T06:58:16;98314.72;;;6.37;86.44
64876;BME280;51369;49.862;9.908;2023-12-20T07:00:41;98311.13;;;6.38;86.57
64876;BME280;51369;49.862;9.908;2023-12-20T07:03:07;98314.59;;;6.42;86.32
64876;BME280;51369;49.862;9.908;2023-12-20T07:05:32;98322.56;;;6.45;86.19
64876;BME280;51369;49.862;9.908;2023-12-20T07:07:58;98332.34;;;6.47;86.24
64876;BME280;51369;49.862;9.908;2023-12-20T07:10:24;98329.59;;;6.49;86.30
64876;BME280;51369;49.862;9.908;2023-12-20T07:12:49;98334.09;;;6.48;85.76
64876;BME280;51369;49.862;9.908;2023-12-20T07:15:16;98327.00;;;6.46;84.94
64876;BME280;51369;49.862;9.908;2023-12-20T07:17:41;98336.00;;;6.43;85.08
64876;BME280;51369;49.862;9.908;2023-12-20T07:20:08;98340.66;;;6.37;84.66
64876;BME280;51369;49.862;9.908;2023-12-20T07:22:36;98331.84;;;6.32;85.04
64876;BME280;51369;49.862;9.908;2023-12-20T07:25:01;98338.25;;;6.26;84.66
64876;BME280;51369;49.862;9.908;2023-12-20T07:27:27;98337.50;;;6.21;84.18
64876;BME280;51369;49.862;9.908;2023-12-20T07:29:52;98343.94;;;6.14;83.92
64876;BME280;51369;49.862;9.908;2023-12-20T07:32:18;98350.38;;;6.07;83.92
64876;BME280;51369;49.862;9.908;2023-12-20T07:34:43;98349.66;;;6.00;83.68
64876;BME280;51369;49.862;9.908;2023-12-20T07:37:09;98348.88;;;5.95;83.41
64876;BME280;51369;49.862;9.908;2023-12-20T07:39:37;98351.66;;;5.91;83.86
64876;BME280;51369;49.862;9.908;2023-12-20T07:42:03;98359.75;;;5.87;83.77
64876;BME280;51369;49.862;9.908;2023-12-20T07:44:28;98353.66;;;5.81;83.95
64876;BME280;51369;49.862;9.908;2023-12-20T07:46:54;98351.06;;;5.78;83.43
64876;BME280;51369;49.862;9.908;2023-12-20T07:49:19;98360.97;;;5.74;82.89
64876;BME280;51369;49.862;9.908;2023-12-20T07:51:45;98353.94;;;5.69;83.25
64876;BME280;51369;49.862;9.908;2023-12-20T07:54:10;98366.53;;;5.65;83.05
64876;BME280;51369;49.862;9.908;2023-12-20T07:56:35;98363.94;;;5.62;83.37
64876;BME280;51369;49.862;9.908;2023-12-20T07:59:01;98364.88;;;5.60;83.57
64876;BME280;51369;49.862;9.908;2023-12-20T08:01:26;98374.75;;;5.57;83.12
64876;BME280;51369;49.862;9.908;2023-12-20T08:03:52;98372.09;;;5.56;83.70
64876;BME280;51369;49.862;9.908;2023-12-20T08:06:17;98364.09;;;5.54;82.98
64876;BME280;51369;49.862;9.908;2023-12-20T08:08:43;98364.97;;;5.55;83.60
64876;BME280;51369;49.862;9.908;2023-12-20T08:11:08;98367.69;;;5.53;82.96
64876;BME280;51369;49.862;9.908;2023-12-20T08:13:33;98373.94;;;5.54;83.12
64876;BME280;51369;49.862;9.908;2023-12-20T08:15:59;98367.72;;;5.52;83.02
64876;BME280;51369;49.862;9.908;2023-12-20T08:18:25;98365.97;;;5.51;83.41
64876;BME280;51369;49.862;9.908;2023-12-20T08:20:50;98365.06;;;5.52;83.51
64876;BME280;51369;49.862;9.908;2023-12-20T08:23:18;98365.06;;;5.52;83.57
64876;BME280;51369;49.862;9.908;2023-12-20T08:25:43;98366.84;;;5.51;83.73
64876;BME280;51369;49.862;9.908;2023-12-20T08:28:08;98374.84;;;5.53;82.93
64876;BME280;51369;49.862;9.908;2023-12-20T08:30:34;98385.50;;;5.56;83.57
64876;BME280;51369;49.862;9.908;2023-12-20T08:33:00;98380.13;;;5.56;82.96
64876;BME280;51369;49.862;9.908;2023-12-20T08:35:26;98386.34;;;5.58;83.40
64876;BME280;51369;49.862;9.908;2023-12-20T08:37:51;98391.66;;;5.60;83.48
64876;BME280;51369;49.862;9.908;2023-12-20T08:40:17;98396.06;;;5.62;83.52
64876;BME280;51369;49.862;9.908;2023-12-20T08:42:42;98397.72;;;5.68;83.38
64876;BME280;51369;49.862;9.908;2023-12-20T08:45:08;98390.44;;;5.74;83.30
64876;BME280;51369;49.862;9.908;2023-12-20T08:47:33;98391.16;;;5.81;83.93
64876;BME280;51369;49.862;9.908;2023-12-20T08:49:58;98399.06;;;5.87;83.44
64876;BME280;51369;49.862;9.908;2023-12-20T08:52:25;98390.03;;;5.93;83.84
64876;BME280;51369;49.862;9.908;2023-12-20T08:54:52;98376.56;;;5.96;83.25
64876;BME280;51369;49.862;9.908;2023-12-20T08:57:21;98382.78;;;5.96;82.56
64876;BME280;51369;49.862;9.908;2023-12-20T08:59:49;98386.31;;;5.98;82.51
64876;BME280;51369;49.862;9.908;2023-12-20T09:02:14;98375.56;;;6.00;82.22
64876;BME280;51369;49.862;9.908;2023-12-20T09:04:40;98385.31;;;6.02;82.29
64876;BME280;51369;49.862;9.908;2023-12-20T09:07:05;98390.66;;;6.04;82.37
64876;BME280;51369;49.862;9.908;2023-12-20T09:09:32;98392.34;;;6.08;82.51
64876;BME280;51369;49.862;9.908;2023-12-20T09:11:58;98385.00;;;6.16;82.42
64876;BME280;51369;49.862;9.908;2023-12-20T09:14:23;98374.91;;;6.26;82.96
64876;BME280;51369;49.862;9.908;2023-12-20T09:16:49;98372.88;;;6.35;82.70
64876;BME280;51369;49.862;9.908;2023-12-20T09:19:18;98367.28;;;6.44;82.33
64876;BME280;51369;49.862;9.908;2023-12-20T09:21:44;98377.81;;;6.52;82.52
64876;BME280;51369;49.862;9.908;2023-12-20T09:24:09;98379.44;;;6.58;82.29
64876;BME280;51369;49.862;9.908;2023-12-20T09:26:34;98391.78;;;6.65;81.92
64876;BME280;51369;49.862;9.908;2023-12-20T09:29:00;98388.09;;;6.69;81.71
64876;BME280;51369;49.862;9.908;2023-12-20T09:31:25;98383.56;;;6.71;81.99
64876;BME280;51369;49.862;9.908;2023-12-20T09:33:51;98384.41;;;6.73;81.64
64876;BME280;51369;49.862;9.908;2023-12-20T09:36:16;98381.63;;;6.76;81.39
64876;BME280;51369;49.862;9.908;2023-12-20T09:38:42;98382.47;;;6.78;81.35
64876;BME280;51369;49.862;9.908;2023-12-20T09:41:07;98393.13;;;6.81;81.33
64876;BME280;51369;49.862;9.908;2023-12-20T09:43:35;98414.59;;;6.81;80.89
64876;BME280;51369;49.862;9.908;2023-12-20T09:46:05;98405.56;;;6.83;80.93
64876;BME280;51369;49.862;9.908;2023-12-20T09:48:31;98407.25;;;6.88;81.22
64876;BME280;51369;49.862;9.908;2023-12-20T09:50:56;98408.03;;;6.91;81.25
64876;BME280;51369;49.862;9.908;2023-12-20T09:53:22;98410.56;;;6.96;80.78
64876;BME280;51369;49.862;9.908;2023-12-20T09:55:57;98408.59;;;7.02;80.93
64876;BME280;51369;49.862;9.908;2023-12-20T09:58:23;98394.16;;;7.06;80.73
64876;BME280;51369;49.862;9.908;2023-12-20T10:00:48;98388.78;;;7.06;80.47
64876;BME280;51369;49.862;9.908;2023-12-20T10:03:14;98394.06;;;7.09;80.98
64876;BME280;51369;49.862;9.908;2023-12-20T10:05:42;98385.00;;;7.13;81.10
64876;BME280;51369;49.862;9.908;2023-12-20T10:08:08;98384.84;;;7.19;80.77
64876;BME280;51369;49.862;9.908;2023-12-20T10:10:33;98373.00;;;7.27;80.21
64876;BME280;51369;49.862;9.908;2023-12-20T10:13:10;98367.53;;;7.30;80.72
64876;BME280;51369;49.862;9.908;2023-12-20T10:15:36;98369.28;;;7.31;79.90
64876;BME280;51369;49.862;9.908;2023-12-20T10:18:02;98366.69;;;7.28;80.03
64876;BME280;51369;49.862;9.908;2023-12-20T10:20:29;98369.41;;;7.26;79.78
64876;BME280;51369;49.862;9.908;2023-12-20T10:22:55;98364.06;;;7.26;79.57
64876;BME280;51369;49.862;9.908;2023-12-20T10:25:21;98364.97;;;7.25;80.15
64876;BME280;51369;49.862;9.908;2023-12-20T10:27:47;98355.94;;;7.28;79.71
64876;BME280;51369;49.862;9.908;2023-12-20T10:30:13;98356.69;;;7.33;80.39
64876;BME280;51369;49.862;9.908;2023-12-20T10:32:39;98354.69;;;7.39;80.11
64876;BME280;51369;49.862;9.908;2023-12-20T10:35:05;98350.06;;;7.44;80.13
64876;BME280;51369;49.862;9.908;2023-12-20T10:37:31;98339.19;;;7.49;80.39
64876;BME280;51369;49.862;9.908;2023-12-20T10:40:03;98357.06;;;7.50;79.87
64876;BME280;51369;49.862;9.908;2023-12-20T10:42:29;98346.31;;;7.50;79.87
64876;BME280;51369;49.862;9.908;2023-12-20T10:44:56;98348.91;;;7.53;80.06
64876;BME280;51369;49.862;9.908;2023-12-20T10:47:22;98350.56;;;7.57;79.29
64876;BME280;51369;49.862;9.908;2023-12-20T10:49:52;98350.47;;;7.60;79.33
64876;BME280;51369;49.862;9.908;2023-12-20T10:52:17;98337.91;;;7.61;79.49
64876;BME280;51369;49.862;9.908;2023-12-20T10:54:44;98338.75;;;7.63;79.58
64876;BME280;51369;49.862;9.908;2023-12-20T10:57:09;98330.59;;;7.66;79.36
64876;BME280;51369;49.862;9.908;2023-12-20T10:59:37;98335.81;;;7.70;79.82
64876;BME280;51369;49.862;9.908;2023-12-20T11:02:04;98329.53;;;7.71;79.32
64876;BME280;51369;49.862;9.908;2023-12-20T11:04:59;98339.34;;;7.72;79.08
64876;BME280;51369;49.862;9.908;2023-12-20T11:07:55;98340.16;;;7.74;79.20
64876;BME280;51369;49.862;9.908;2023-12-20T11:10:38;98341.00;;;7.76;78.86
64876;BME280;51369;49.862;9.908;2023-12-20T11:13:32;98345.41;;;7.79;78.76
64876;BME280;51369;49.862;9.908;2023-12-20T11:15:56;98341.78;;;7.80;78.86
64876;BME280;51369;49.862;9.908;2023-12-20T11:18:28;98345.44;;;7.77;78.78
64876;BME280;51369;49.862;9.908;2023-12-20T11:20:54;98329.28;;;7.79;78.19
64876;BME280;51369;49.862;9.908;2023-12-20T11:23:20;98332.84;;;7.79;78.41
64876;BME280;51369;49.862;9.908;2023-12-20T11:25:52;98335.56;;;7.78;78.44
64876;BME280;51369;49.862;9.908;2023-12-20T11:28:23;98333.81;;;7.77;78.52
64876;BME280;51369;49.862;9.908;2023-12-20T11:30:52;98324.94;;;7.75;78.66
64876;BME280;51369;49.862;9.908;2023-12-20T11:33:44;98324.19;;;7.70;78.53
64876;BME280;51369;49.862;9.908;2023-12-20T11:36:14;98321.47;;;7.71;78.04
64876;BME280;51369;49.862;9.908;2023-12-20T11:38:56;98322.53;;;7.66;78.38
64876;BME280;51369;49.862;9.908;2023-12-20T11:41:26;98327.03;;;7.65;77.72
64876;BME280;51369;49.862;9.908;2023-12-20T11:43:55;98317.25;;;7.63;77.90
64876;BME280;51369;49.862;9.908;2023-12-20T11:46:22;98317.25;;;7.63;78.27
64876;BME280;51369;49.862;9.908;2023-12-20T11:48:47;98313.75;;;7.61;78.09
64876;BME280;51369;49.862;9.908;2023-12-20T11:51:13;98312.88;;;7.60;78.59
64876;BME280;51369;49.862;9.908;2023-12-20T11:53:40;98311.09;;;7.59;78.17
64876;BME280;51369;49.862;9.908;2023-12-20T11:56:06;98312.88;;;7.60;78.11
64876;BME280;51369;49.862;9.908;2023-12-20T11:58:33;98319.22;;;7.58;78.15
64876;BME280;51369;49.862;9.908;2023-12-20T12:00:58;98319.16;;;7.59;77.64
64876;BME280;51369;49.862;9.908;2023-12-20T12:03:24;98303.03;;;7.59;78.07
64876;BME280;51369;49.862;9.908;2023-12-20T12:05:49;98295.91;;;7.58;78.06
64876;BME280;51369;49.862;9.908;2023-12-20T12:08:15;98297.66;;;7.59;77.81
64876;BME280;51369;49.862;9.908;2023-12-20T12:10:41;98293.94;;;7.63;77.93
64876;BME280;51369;49.862;9.908;2023-12-20T12:13:06;98281.34;;;7.65;77.68
64876;BME280;51369;49.862;9.908;2023-12-20T12:15:31;98282.19;;;7.67;77.39
64876;BME280;51369;49.862;9.908;2023-12-20T12:17:57;98284.75;;;7.70;77.61
64876;BME280;51369;49.862;9.908;2023-12-20T12:20:23;98278.47;;;7.71;77.45
64876;BME280;51369;49.862;9.908;2023-12-20T12:23:02;98273.97;;;7.72;77.54
64876;BME280;51369;49.862;9.908;2023-12-20T12:25:29;98283.78;;;7.73;78.11
64876;BME280;51369;49.862;9.908;2023-12-20T12:27:56;98273.88;;;7.75;76.86
64876;BME280;51369;49.862;9.908;2023-12-20T12:30:22;98296.25;;;7.75;76.83
64876;BME280;51369;49.862;9.908;2023-12-20T12:32:48;98291.69;;;7.77;76.84
64876;BME280;51369;49.862;9.908;2023-12-20T12:35:14;98296.97;;;7.80;77.40
64876;BME280;51369;49.862;9.908;2023-12-20T12:37:40;98287.09;;;7.81;77.00
64876;BME280;51369;49.862;9.908;2023-12-20T12:40:10;98288.84;;;7.82;77.41
64876;BME280;51369;49.862;9.908;2023-12-20T12:42:37;98292.44;;;7.82;76.98
64876;BME280;51369;49.862;9.908;2023-12-20T12:45:03;98292.44;;;7.82;76.66
64876;BME280;51369;49.862;9.908;2023-12-20T12:47:29;98293.34;;;7.81;76.87
64876;BME280;51369;49.862;9.908;2023-12-20T12:49:54;98288.91;;;7.80;77.00
64876;BME280;51369;49.862;9.908;2023-12-20T12:52:20;98289.88;;;7.78;76.86
64876;BME280;51369;49.862;9.908;2023-12-20T12:54:45;98289.00;;;7.77;76.64
64876;BME280;51369;49.862;9.908;2023-12-20T12:57:11;98287.31;;;7.75;75.93
64876;BME280;51369;49.862;9.908;2023-12-20T12:59:37;98286.41;;;7.74;76.06
64876;BME280;51369;49.862;9.908;2023-12-20T13:02:02;98289.16;;;7.73;76.44
64876;BME280;51369;49.862;9.908;2023-12-20T13:04:28;98296.34;;;7.72;75.73